Aérodrome :
LOGIN :

S'inscrire | Disclaimer

   EN    FR    IT 

 










Légende :    VFR   VFR Marginal   IFR   IFR Intensif   IFR Très Intensif
Visi : 
Plafond : 
>= 8 km
>= 3000ft
5 à 8 km
1000 à 3000 ft
1500m à 5 km
500 à 1000 ft
800 à 1500m
200 à 500 ft
< 800m
< 200 ft
Symboles :   Orages  Brouillard  Fortes neiges  Fortes précipitations  Vent > 20 kt
SIGMETs :   Divers  Orages  Givrage  Turbulence  Onde Orograph.  Cendres Volcan.






- Altitude de l'aérodrome : 408 ft
- Code IATA : FKB


EDSB - Karlsruhe Baden Baden

DERNIER METAR :
  • 261320Z VRB02KT 2000 OVC003 02/02 Q1019

METARs EXPIRÉS :
  • 261250Z 21003KT 170V290 2000 OVC003 02/02 Q1019
  • 261220Z 21003KT 160V280 1300 R21/P2000N BR OVC002 02/02 Q1020
  • 261150Z 18003KT 140V220 1200 R21/2000D BR OVC002 02/02 Q1020
  • 261120Z 22003KT 170V280 1100 R21/P2000N BR OVC002 01/01 Q1020
  • 261050Z VRB02KT 0800 R21/P2000N FG VV/// 01/01 Q1020

TAF TAF EDSB
Valide du 26 à 12h jusqu'au 27 à 12h UTC


261100Z 2612/2712 VRB03KT 4000 BR BKN006
PROB30
TEMPO 2612/2614 0800 FG OVC001
BECMG 2612/2615 6000 SCT006
BECMG 2618/2621 3000 BR
BECMG 2621/2624 20005KT
BECMG 2700/2703 6000
BECMG 2704/2707 20010KT



MET'MAP, la Météo Aéronautique d'un coup d'oeil ! - Copyright ORBIFLY Décembre 2007 - Disclaimer

ORBIFLY MET'MAP TEAM :

Programmation & Développement : Alexandra Zaïnal
Sur une idée originale de : Baudouin d'Aumeries
Assistance à la programmation : Marc-Olivier Méhu
Soutien technique & logistique : Manuel Goepfert

Contact : metmap@orbifly.com




SOURCES & CREDITS :

   NOAA